Ext Villa Marina, Puerto Rico
Current Conditions -  °F | °C
As of 12:56 PM on Friday 31 Oct 2014 (Local Time) from TJSJ Reporting Station
Thunderstorm Thunderstorm  
Wind Chill: 80°   Ceiling: 9000
Heat Index: 86°   Visibility: 10mi
Dew Point: 77°   Wind: 6mph
Humidity: 90%   Direction: 70°ENE
Pressure: 29.88"   Gusts: NA
Location:  18.2551°N, 65.9776°W
Report Text: TJSJ 311656Z 07005KT 10SM -TSRA FEW037CB SCT060 BKN090 27/25 A2988 RMK AO2 TSB42RAE30B56 SLP118 OCNL LTGIC SW-NW N TS SW-NW N MOV N VCSH SW-NW N P0005 T02670250
Loading
Personal Weather Stations






























Interactive Weather Map
Tropical Storm Tracking
New forecast layout! Learn more

10-Day Weather Forecast

Advertisements
Track Severe Weather on mobile